createdAt,value
2022-09-07T05:10:29.964Z,45.39
2022-09-07T05:26:12.361Z,44.2
2022-09-07T05:41:55.047Z,42.77
2022-09-07T05:57:37.971Z,47.53
2022-09-07T06:13:20.367Z,49.41
2022-09-07T06:29:02.774Z,50.9
2022-09-07T06:29:50.056Z,50.42
2022-09-07T06:45:32.887Z,50.24
2022-09-07T07:01:15.014Z,51.1
2022-09-07T07:16:57.705Z,50.76
2022-09-07T07:32:40.562Z,50.13
2022-09-07T07:48:22.897Z,47.66
2022-09-07T08:04:05.590Z,44.82
2022-09-07T08:19:47.890Z,40.56
2022-09-07T08:35:30.788Z,37.57
2022-09-07T08:51:12.811Z,36.61
2022-09-07T09:06:55.380Z,35.3
2022-09-07T09:22:38.054Z,34.1
2022-09-07T09:38:20.149Z,33.43
2022-09-07T09:54:02.535Z,33.49
2022-09-07T10:09:44.702Z,33.1
2022-09-07T10:25:26.579Z,32.24
2022-09-07T10:41:09.259Z,36.31
2022-09-07T10:56:51.262Z,39.97
2022-09-07T11:12:33.909Z,42.2
2022-09-07T11:28:16.285Z,41.11
2022-09-07T11:43:58.902Z,39.56
2022-09-07T11:59:41.642Z,40.26
2022-09-07T12:15:23.741Z,41.76
2022-09-07T12:31:06.549Z,38.08
2022-09-07T12:46:49.005Z,40.06
2022-09-07T13:02:31.659Z,42.22
2022-09-07T13:18:13.639Z,43.67
2022-09-07T13:33:55.831Z,43.77
2022-09-07T13:49:37.796Z,41.97
2022-09-07T14:05:20.324Z,43.13
2022-09-07T14:21:02.375Z,44.43
2022-09-07T14:36:44.522Z,45.16
2022-09-07T14:52:26.720Z,45.77
2022-09-07T15:08:09.052Z,46.26
2022-09-07T15:23:51.774Z,44.95
2022-09-07T15:39:34.533Z,45.69
2022-09-07T15:55:17.342Z,46.93
2022-09-07T16:10:59.465Z,48.06
